sensor_id;sensor_type;location;lat;lon;timestamp;P1;durP1;ratioP1;P2;durP2;ratioP2
3231;SDS011;1628;48.884;9.210;2022-10-22T04:00:39;1.23;;;1.17;;
3231;SDS011;1628;48.884;9.210;2022-10-22T04:03:06;2.53;;;1.10;;
3231;SDS011;1628;48.884;9.210;2022-10-22T04:05:33;1.83;;;1.00;;
3231;SDS011;1628;48.884;9.210;2022-10-22T04:07:59;2.30;;;1.10;;
3231;SDS011;1628;48.884;9.210;2022-10-22T04:10:26;2.13;;;1.43;;
3231;SDS011;1628;48.884;9.210;2022-10-22T04:12:52;2.70;;;0.90;;
3231;SDS011;1628;48.884;9.210;2022-10-22T04:15:19;0.80;;;0.80;;
3231;SDS011;1628;48.884;9.210;2022-10-22T04:17:47;1.00;;;1.00;;
3231;SDS011;1628;48.884;9.210;2022-10-22T04:20:14;1.33;;;0.87;;
3231;SDS011;1628;48.884;9.210;2022-10-22T04:22:41;1.10;;;1.00;;
3231;SDS011;1628;48.884;9.210;2022-10-22T04:25:08;1.37;;;0.90;;
3231;SDS011;1628;48.884;9.210;2022-10-22T04:27:35;1.33;;;1.00;;
3231;SDS011;1628;48.884;9.210;2022-10-22T04:30:02;0.80;;;0.80;;
3231;SDS011;1628;48.884;9.210;2022-10-22T04:32:30;1.83;;;0.80;;
3231;SDS011;1628;48.884;9.210;2022-10-22T04:34:58;1.93;;;0.90;;
3231;SDS011;1628;48.884;9.210;2022-10-22T04:37:25;1.50;;;0.70;;
3231;SDS011;1628;48.884;9.210;2022-10-22T04:39:51;1.03;;;0.90;;
3231;SDS011;1628;48.884;9.210;2022-10-22T04:42:18;3.20;;;1.43;;
3231;SDS011;1628;48.884;9.210;2022-10-22T04:44:45;1.17;;;1.10;;
3231;SDS011;1628;48.884;9.210;2022-10-22T04:47:11;1.73;;;0.93;;
3231;SDS011;1628;48.884;9.210;2022-10-22T04:49:38;1.90;;;1.20;;
3231;SDS011;1628;48.884;9.210;2022-10-22T04:52:06;0.70;;;0.70;;
3231;SDS011;1628;48.884;9.210;2022-10-22T04:54:33;2.83;;;0.87;;
3231;SDS011;1628;48.884;9.210;2022-10-22T04:57:00;2.63;;;0.80;;
3231;SDS011;1628;48.884;9.210;2022-10-22T04:59:26;0.90;;;0.90;;
3231;SDS011;1628;48.884;9.210;2022-10-22T05:01:53;3.70;;;0.80;;
3231;SDS011;1628;48.884;9.210;2022-10-22T05:04:20;0.87;;;0.67;;
3231;SDS011;1628;48.884;9.210;2022-10-22T05:06:46;4.77;;;1.17;;
3231;SDS011;1628;48.884;9.210;2022-10-22T05:09:15;2.67;;;0.80;;
3231;SDS011;1628;48.884;9.210;2022-10-22T05:11:44;1.23;;;0.90;;
3231;SDS011;1628;48.884;9.210;2022-10-22T05:14:13;2.20;;;0.80;;
3231;SDS011;1628;48.884;9.210;2022-10-22T05:16:41;0.90;;;0.90;;
3231;SDS011;1628;48.884;9.210;2022-10-22T05:19:10;2.67;;;1.50;;
3231;SDS011;1628;48.884;9.210;2022-10-22T05:21:41;1.10;;;1.10;;
3231;SDS011;1628;48.884;9.210;2022-10-22T05:24:08;0.87;;;0.87;;
3231;SDS011;1628;48.884;9.210;2022-10-22T05:26:35;1.77;;;0.83;;
3231;SDS011;1628;48.884;9.210;2022-10-22T05:29:02;1.27;;;0.70;;
3231;SDS011;1628;48.884;9.210;2022-10-22T05:31:29;0.87;;;0.87;;
3231;SDS011;1628;48.884;9.210;2022-10-22T05:33:56;1.00;;;0.90;;
3231;SDS011;1628;48.884;9.210;2022-10-22T05:36:22;1.27;;;0.70;;
3231;SDS011;1628;48.884;9.210;2022-10-22T05:38:49;0.70;;;0.70;;
3231;SDS011;1628;48.884;9.210;2022-10-22T05:41:17;5.10;;;2.13;;
3231;SDS011;1628;48.884;9.210;2022-10-22T05:43:46;0.80;;;0.80;;
3231;SDS011;1628;48.884;9.210;2022-10-22T05:46:14;1.23;;;0.80;;
3231;SDS011;1628;48.884;9.210;2022-10-22T05:48:42;2.37;;;0.90;;
3231;SDS011;1628;48.884;9.210;2022-10-22T05:51:09;1.07;;;0.77;;
3231;SDS011;1628;48.884;9.210;2022-10-22T05:53:39;3.13;;;1.10;;
3231;SDS011;1628;48.884;9.210;2022-10-22T05:56:08;1.50;;;1.10;;
3231;SDS011;1628;48.884;9.210;2022-10-22T05:58:37;2.03;;;0.93;;
3231;SDS011;1628;48.884;9.210;2022-10-22T06:01:06;0.67;;;0.67;;
3231;SDS011;1628;48.884;9.210;2022-10-22T06:03:34;1.00;;;1.00;;
3231;SDS011;1628;48.884;9.210;2022-10-22T06:06:01;1.23;;;0.80;;
3231;SDS011;1628;48.884;9.210;2022-10-22T06:08:30;0.77;;;0.77;;
3231;SDS011;1628;48.884;9.210;2022-10-22T06:10:56;2.20;;;0.83;;
3231;SDS011;1628;48.884;9.210;2022-10-22T06:13:23;1.80;;;1.63;;
3231;SDS011;1628;48.884;9.210;2022-10-22T06:15:50;1.40;;;1.30;;
3231;SDS011;1628;48.884;9.210;2022-10-22T06:18:19;2.10;;;1.17;;
3231;SDS011;1628;48.884;9.210;2022-10-22T06:20:45;2.00;;;1.10;;
3231;SDS011;1628;48.884;9.210;2022-10-22T06:23:12;0.80;;;0.80;;
3231;SDS011;1628;48.884;9.210;2022-10-22T06:25:39;0.90;;;0.90;;
3231;SDS011;1628;48.884;9.210;2022-10-22T06:28:06;2.00;;;1.13;;
3231;SDS011;1628;48.884;9.210;2022-10-22T06:30:33;0.80;;;0.70;;
3231;SDS011;1628;48.884;9.210;2022-10-22T06:32:59;2.23;;;0.60;;
3231;SDS011;1628;48.884;9.210;2022-10-22T06:35:27;0.87;;;0.80;;
3231;SDS011;1628;48.884;9.210;2022-10-22T06:37:54;2.30;;;1.13;;
3231;SDS011;1628;48.884;9.210;2022-10-22T06:40:21;3.43;;;0.80;;
3231;SDS011;1628;48.884;9.210;2022-10-22T06:42:48;1.37;;;1.20;;
3231;SDS011;1628;48.884;9.210;2022-10-22T06:45:15;1.43;;;1.33;;
3231;SDS011;1628;48.884;9.210;2022-10-22T06:47:42;1.43;;;1.33;;
3231;SDS011;1628;48.884;9.210;2022-10-22T06:50:08;1.17;;;1.00;;
3231;SDS011;1628;48.884;9.210;2022-10-22T06:52:36;2.10;;;1.30;;
3231;SDS011;1628;48.884;9.210;2022-10-22T06:55:03;1.77;;;1.60;;
3231;SDS011;1628;48.884;9.210;2022-10-22T06:57:30;5.57;;;1.50;;
3231;SDS011;1628;48.884;9.210;2022-10-22T06:59:57;1.60;;;1.50;;
3231;SDS011;1628;48.884;9.210;2022-10-22T07:02:23;1.30;;;1.20;;
3231;SDS011;1628;48.884;9.210;2022-10-22T07:04:50;4.27;;;1.20;;
3231;SDS011;1628;48.884;9.210;2022-10-22T07:07:17;1.43;;;1.33;;
3231;SDS011;1628;48.884;9.210;2022-10-22T07:09:45;2.00;;;1.13;;
3231;SDS011;1628;48.884;9.210;2022-10-22T07:12:13;1.27;;;1.07;;
3231;SDS011;1628;48.884;9.210;2022-10-22T07:14:40;1.03;;;0.93;;
3231;SDS011;1628;48.884;9.210;2022-10-22T07:17:06;2.73;;;1.30;;
3231;SDS011;1628;48.884;9.210;2022-10-22T07:19:33;1.70;;;1.60;;
3231;SDS011;1628;48.884;9.210;2022-10-22T07:22:00;1.90;;;1.00;;
3231;SDS011;1628;48.884;9.210;2022-10-22T07:24:27;4.30;;;3.17;;
3231;SDS011;1628;48.884;9.210;2022-10-22T07:26:55;4.67;;;1.03;;
3231;SDS011;1628;48.884;9.210;2022-10-22T07:29:22;2.70;;;1.00;;
3231;SDS011;1628;48.884;9.210;2022-10-22T07:31:48;0.90;;;0.90;;
3231;SDS011;1628;48.884;9.210;2022-10-22T07:34:15;8.20;;;2.27;;
3231;SDS011;1628;48.884;9.210;2022-10-22T07:36:42;2.20;;;1.63;;
3231;SDS011;1628;48.884;9.210;2022-10-22T07:39:09;0.80;;;0.80;;
3231;SDS011;1628;48.884;9.210;2022-10-22T07:41:36;3.13;;;1.13;;
3231;SDS011;1628;48.884;9.210;2022-10-22T07:44:04;0.70;;;0.70;;
3231;SDS011;1628;48.884;9.210;2022-10-22T07:46:30;1.80;;;1.00;;
3231;SDS011;1628;48.884;9.210;2022-10-22T07:48:59;1.00;;;1.00;;
3231;SDS011;1628;48.884;9.210;2022-10-22T07:51:25;1.30;;;1.07;;
3231;SDS011;1628;48.884;9.210;2022-10-22T07:53:52;1.13;;;1.00;;
3231;SDS011;1628;48.884;9.210;2022-10-22T07:56:19;1.67;;;1.03;;
3231;SDS011;1628;48.884;9.210;2022-10-22T07:58:46;1.90;;;1.10;;
3231;SDS011;1628;48.884;9.210;2022-10-22T08:01:14;1.70;;;1.03;;
3231;SDS011;1628;48.884;9.210;2022-10-22T08:03:40;2.67;;;1.33;;
3231;SDS011;1628;48.884;9.210;2022-10-22T08:06:07;4.10;;;2.07;;
3231;SDS011;1628;48.884;9.210;2022-10-22T08:08:35;1.30;;;1.17;;
3231;SDS011;1628;48.884;9.210;2022-10-22T08:11:01;1.00;;;1.00;;
3231;SDS011;1628;48.884;9.210;2022-10-22T08:13:28;1.90;;;1.30;;
3231;SDS011;1628;48.884;9.210;2022-10-22T08:15:55;2.27;;;1.10;;
3231;SDS011;1628;48.884;9.210;2022-10-22T08:18:24;5.10;;;1.20;;
3231;SDS011;1628;48.884;9.210;2022-10-22T08:20:51;1.43;;;1.00;;
3231;SDS011;1628;48.884;9.210;2022-10-22T08:23:18;1.07;;;0.97;;
3231;SDS011;1628;48.884;9.210;2022-10-22T08:25:45;3.90;;;0.97;;
3231;SDS011;1628;48.884;9.210;2022-10-22T08:28:12;4.33;;;1.13;;
3231;SDS011;1628;48.884;9.210;2022-10-22T08:30:38;2.30;;;0.80;;
3231;SDS011;1628;48.884;9.210;2022-10-22T08:33:06;2.47;;;0.83;;
3231;SDS011;1628;48.884;9.210;2022-10-22T08:35:34;0.97;;;0.70;;
3231;SDS011;1628;48.884;9.210;2022-10-22T08:38:01;1.27;;;0.97;;
3231;SDS011;1628;48.884;9.210;2022-10-22T08:40:28;1.23;;;0.93;;
3231;SDS011;1628;48.884;9.210;2022-10-22T08:43:04;1.07;;;1.07;;
3231;SDS011;1628;48.884;9.210;2022-10-22T08:45:49;1.00;;;1.00;;
3231;SDS011;1628;48.884;9.210;2022-10-22T08:48:32;2.23;;;1.00;;
3231;SDS011;1628;48.884;9.210;2022-10-22T08:51:09;2.00;;;0.87;;
3231;SDS011;1628;48.884;9.210;2022-10-22T08:53:40;0.93;;;0.93;;
3231;SDS011;1628;48.884;9.210;2022-10-22T08:56:18;1.10;;;1.00;;
3231;SDS011;1628;48.884;9.210;2022-10-22T08:58:48;1.80;;;1.20;;
3231;SDS011;1628;48.884;9.210;2022-10-22T09:01:20;1.30;;;1.20;;
3231;SDS011;1628;48.884;9.210;2022-10-22T09:03:49;1.47;;;0.93;;
3231;SDS011;1628;48.884;9.210;2022-10-22T09:06:22;1.40;;;0.80;;
3231;SDS011;1628;48.884;9.210;2022-10-22T09:08:50;3.50;;;1.10;;
3231;SDS011;1628;48.884;9.210;2022-10-22T09:11:23;3.33;;;0.80;;
3231;SDS011;1628;48.884;9.210;2022-10-22T09:13:52;1.53;;;1.00;;
3231;SDS011;1628;48.884;9.210;2022-10-22T09:16:23;1.57;;;1.20;;
3231;SDS011;1628;48.884;9.210;2022-10-22T09:18:59;4.47;;;1.10;;
3231;SDS011;1628;48.884;9.210;2022-10-22T09:21:37;2.97;;;1.30;;
3231;SDS011;1628;48.884;9.210;2022-10-22T09:24:11;1.20;;;0.93;;
3231;SDS011;1628;48.884;9.210;2022-10-22T09:26:44;2.30;;;1.10;;
3231;SDS011;1628;48.884;9.210;2022-10-22T09:29:12;0.80;;;0.80;;
3231;SDS011;1628;48.884;9.210;2022-10-22T09:31:44;1.80;;;0.70;;
3231;SDS011;1628;48.884;9.210;2022-10-22T09:34:12;0.80;;;0.80;;
3231;SDS011;1628;48.884;9.210;2022-10-22T09:36:41;4.37;;;0.80;;
3231;SDS011;1628;48.884;9.210;2022-10-22T09:39:20;0.80;;;0.70;;
3231;SDS011;1628;48.884;9.210;2022-10-22T09:41:49;1.30;;;1.10;;
3231;SDS011;1628;48.884;9.210;2022-10-22T09:44:16;0.77;;;0.77;;
3231;SDS011;1628;48.884;9.210;2022-10-22T09:46:43;0.70;;;0.70;;
3231;SDS011;1628;48.884;9.210;2022-10-22T09:49:10;1.17;;;1.10;;
3231;SDS011;1628;48.884;9.210;2022-10-22T09:51:51;3.43;;;1.00;;
3231;SDS011;1628;48.884;9.210;2022-10-22T09:54:20;1.40;;;0.83;;
3231;SDS011;1628;48.884;9.210;2022-10-22T09:56:55;1.20;;;0.80;;
3231;SDS011;1628;48.884;9.210;2022-10-22T09:59:25;1.77;;;0.80;;
3231;SDS011;1628;48.884;9.210;2022-10-22T10:02:01;0.80;;;0.80;;
3231;SDS011;1628;48.884;9.210;2022-10-22T10:04:33;2.10;;;0.97;;
3231;SDS011;1628;48.884;9.210;2022-10-22T10:07:02;1.17;;;1.00;;
3231;SDS011;1628;48.884;9.210;2022-10-22T10:09:29;1.07;;;0.80;;
3231;SDS011;1628;48.884;9.210;2022-10-22T10:12:03;0.87;;;0.80;;
3231;SDS011;1628;48.884;9.210;2022-10-22T10:14:40;1.17;;;0.60;;
3231;SDS011;1628;48.884;9.210;2022-10-22T10:17:15;0.80;;;0.57;;
3231;SDS011;1628;48.884;9.210;2022-10-22T10:19:59;0.73;;;0.60;;
3231;SDS011;1628;48.884;9.210;2022-10-22T10:22:43;0.70;;;0.70;;
3231;SDS011;1628;48.884;9.210;2022-10-22T10:25:23;1.30;;;0.80;;
3231;SDS011;1628;48.884;9.210;2022-10-22T10:27:59;1.07;;;0.80;;
3231;SDS011;1628;48.884;9.210;2022-10-22T10:30:31;2.23;;;0.83;;
3231;SDS011;1628;48.884;9.210;2022-10-22T10:33:04;0.80;;;0.80;;
3231;SDS011;1628;48.884;9.210;2022-10-22T10:35:44;0.70;;;0.70;;
3231;SDS011;1628;48.884;9.210;2022-10-22T10:38:23;2.57;;;0.90;;
3231;SDS011;1628;48.884;9.210;2022-10-22T10:41:13;1.93;;;1.20;;
3231;SDS011;1628;48.884;9.210;2022-10-22T10:43:47;0.90;;;0.80;;
3231;SDS011;1628;48.884;9.210;2022-10-22T10:46:27;1.03;;;0.70;;
3231;SDS011;1628;48.884;9.210;2022-10-22T10:49:02;2.47;;;0.60;;
3231;SDS011;1628;48.884;9.210;2022-10-22T10:51:37;1.70;;;0.60;;
3231;SDS011;1628;48.884;9.210;2022-10-22T10:54:25;0.80;;;0.80;;
3231;SDS011;1628;48.884;9.210;2022-10-22T10:57:01;1.20;;;0.73;;
3231;SDS011;1628;48.884;9.210;2022-10-22T10:59:36;0.80;;;0.80;;
3231;SDS011;1628;48.884;9.210;2022-10-22T11:02:14;1.03;;;0.90;;
3231;SDS011;1628;48.884;9.210;2022-10-22T11:05:02;0.80;;;0.80;;
3231;SDS011;1628;48.884;9.210;2022-10-22T11:07:38;1.50;;;1.40;;
3231;SDS011;1628;48.884;9.210;2022-10-22T11:10:12;1.20;;;1.10;;
3231;SDS011;1628;48.884;9.210;2022-10-22T11:12:46;1.60;;;0.97;;
3231;SDS011;1628;48.884;9.210;2022-10-22T11:15:21;3.73;;;1.13;;
3231;SDS011;1628;48.884;9.210;2022-10-22T11:17:53;2.60;;;0.87;;
3231;SDS011;1628;48.884;9.210;2022-10-22T11:20:27;1.27;;;1.17;;
3231;SDS011;1628;48.884;9.210;2022-10-22T11:23:04;4.30;;;0.80;;
3231;SDS011;1628;48.884;9.210;2022-10-22T11:25:39;2.10;;;0.97;;
3231;SDS011;1628;48.884;9.210;2022-10-22T11:28:10;2.90;;;1.10;;
3231;SDS011;1628;48.884;9.210;2022-10-22T11:30:40;2.63;;;0.80;;
3231;SDS011;1628;48.884;9.210;2022-10-22T11:33:11;1.53;;;0.87;;
3231;SDS011;1628;48.884;9.210;2022-10-22T11:35:43;1.03;;;0.83;;
3231;SDS011;1628;48.884;9.210;2022-10-22T11:38:13;0.80;;;0.80;;
3231;SDS011;1628;48.884;9.210;2022-10-22T11:40:45;1.07;;;0.80;;
3231;SDS011;1628;48.884;9.210;2022-10-22T11:43:24;1.90;;;1.00;;
3231;SDS011;1628;48.884;9.210;2022-10-22T11:45:57;1.83;;;0.90;;
3231;SDS011;1628;48.884;9.210;2022-10-22T11:48:33;1.23;;;0.90;;
3231;SDS011;1628;48.884;9.210;2022-10-22T11:51:02;1.97;;;0.90;;
3231;SDS011;1628;48.884;9.210;2022-10-22T11:53:30;1.80;;;1.17;;
3231;SDS011;1628;48.884;9.210;2022-10-22T11:56:03;0.77;;;0.77;;
3231;SDS011;1628;48.884;9.210;2022-10-22T11:58:45;3.00;;;1.40;;
3231;SDS011;1628;48.884;9.210;2022-10-22T12:01:20;4.40;;;1.30;;
3231;SDS011;1628;48.884;9.210;2022-10-22T12:03:53;1.13;;;1.03;;
3231;SDS011;1628;48.884;9.210;2022-10-22T12:06:51;0.80;;;0.80;;
3231;SDS011;1628;48.884;9.210;2022-10-22T12:09:25;1.53;;;0.80;;
3231;SDS011;1628;48.884;9.210;2022-10-22T12:11:55;1.23;;;0.87;;
3231;SDS011;1628;48.884;9.210;2022-10-22T12:14:31;0.87;;;0.87;;
3231;SDS011;1628;48.884;9.210;2022-10-22T12:17:02;1.67;;;0.83;;
3231;SDS011;1628;48.884;9.210;2022-10-22T12:19:35;2.73;;;1.20;;
3231;SDS011;1628;48.884;9.210;2022-10-22T12:22:10;1.37;;;0.80;;
3231;SDS011;1628;48.884;9.210;2022-10-22T12:24:40;2.23;;;0.93;;
3231;SDS011;1628;48.884;9.210;2022-10-22T12:27:19;2.37;;;0.80;;
3231;SDS011;1628;48.884;9.210;2022-10-22T12:29:46;1.43;;;0.70;;
3231;SDS011;1628;48.884;9.210;2022-10-22T12:32:14;0.50;;;0.50;;
3231;SDS011;1628;48.884;9.210;2022-10-22T12:34:44;0.87;;;0.80;;
3231;SDS011;1628;48.884;9.210;2022-10-22T12:37:12;3.50;;;1.20;;
3231;SDS011;1628;48.884;9.210;2022-10-22T12:39:40;1.07;;;0.90;;
3231;SDS011;1628;48.884;9.210;2022-10-22T12:42:07;2.20;;;0.90;;
3231;SDS011;1628;48.884;9.210;2022-10-22T12:44:39;2.07;;;1.17;;
3231;SDS011;1628;48.884;9.210;2022-10-22T12:47:06;1.80;;;0.90;;
3231;SDS011;1628;48.884;9.210;2022-10-22T12:49:38;6.50;;;1.37;;
3231;SDS011;1628;48.884;9.210;2022-10-22T12:52:12;2.43;;;0.80;;
3231;SDS011;1628;48.884;9.210;2022-10-22T12:54:41;1.90;;;1.10;;
3231;SDS011;1628;48.884;9.210;2022-10-22T12:57:09;2.47;;;1.50;;
3231;SDS011;1628;48.884;9.210;2022-10-22T12:59:41;3.57;;;1.07;;
3231;SDS011;1628;48.884;9.210;2022-10-22T13:02:11;1.17;;;1.07;;
3231;SDS011;1628;48.884;9.210;2022-10-22T13:05:02;1.17;;;1.00;;
3231;SDS011;1628;48.884;9.210;2022-10-22T13:07:40;1.70;;;0.97;;
3231;SDS011;1628;48.884;9.210;2022-10-22T13:10:14;1.63;;;0.90;;
3231;SDS011;1628;48.884;9.210;2022-10-22T13:12:47;2.20;;;0.80;;
3231;SDS011;1628;48.884;9.210;2022-10-22T13:15:21;0.87;;;0.73;;
3231;SDS011;1628;48.884;9.210;2022-10-22T13:18:02;2.00;;;0.80;;
3231;SDS011;1628;48.884;9.210;2022-10-22T13:20:30;3.57;;;1.70;;
3231;SDS011;1628;48.884;9.210;2022-10-22T13:23:01;2.10;;;1.43;;
3231;SDS011;1628;48.884;9.210;2022-10-22T13:25:29;0.80;;;0.80;;
3231;SDS011;1628;48.884;9.210;2022-10-22T13:27:58;1.90;;;0.83;;
3231;SDS011;1628;48.884;9.210;2022-10-22T13:30:30;0.80;;;0.80;;
3231;SDS011;1628;48.884;9.210;2022-10-22T13:32:59;2.83;;;1.20;;
3231;SDS011;1628;48.884;9.210;2022-10-22T13:35:28;2.63;;;1.03;;
3231;SDS011;1628;48.884;9.210;2022-10-22T13:37:57;2.50;;;0.90;;
3231;SDS011;1628;48.884;9.210;2022-10-22T13:40:24;4.23;;;1.43;;
3231;SDS011;1628;48.884;9.210;2022-10-22T13:42:51;1.90;;;0.97;;
3231;SDS011;1628;48.884;9.210;2022-10-22T13:45:18;0.87;;;0.80;;
3231;SDS011;1628;48.884;9.210;2022-10-22T13:47:47;3.67;;;0.90;;
3231;SDS011;1628;48.884;9.210;2022-10-22T13:50:17;2.23;;;0.80;;
3231;SDS011;1628;48.884;9.210;2022-10-22T13:52:45;3.33;;;0.90;;
3231;SDS011;1628;48.884;9.210;2022-10-22T13:55:16;1.90;;;1.10;;
3231;SDS011;1628;48.884;9.210;2022-10-22T13:57:44;2.10;;;1.70;;
3231;SDS011;1628;48.884;9.210;2022-10-22T14:00:13;1.37;;;1.27;;
3231;SDS011;1628;48.884;9.210;2022-10-22T14:02:41;7.20;;;1.00;;
3231;SDS011;1628;48.884;9.210;2022-10-22T14:05:10;1.83;;;1.13;;
3231;SDS011;1628;48.884;9.210;2022-10-22T14:07:37;7.27;;;1.03;;
3231;SDS011;1628;48.884;9.210;2022-10-22T14:10:13;2.10;;;1.00;;
3231;SDS011;1628;48.884;9.210;2022-10-22T14:12:42;4.27;;;0.83;;
3231;SDS011;1628;48.884;9.210;2022-10-22T14:15:09;1.57;;;1.00;;
3231;SDS011;1628;48.884;9.210;2022-10-22T14:17:38;2.00;;;1.00;;
3231;SDS011;1628;48.884;9.210;2022-10-22T14:20:09;3.67;;;1.20;;
3231;SDS011;1628;48.884;9.210;2022-10-22T14:22:43;1.63;;;1.20;;
3231;SDS011;1628;48.884;9.210;2022-10-22T14:25:11;0.90;;;0.90;;
3231;SDS011;1628;48.884;9.210;2022-10-22T14:27:40;2.23;;;1.17;;
3231;SDS011;1628;48.884;9.210;2022-10-22T14:30:07;1.10;;;1.03;;
3231;SDS011;1628;48.884;9.210;2022-10-22T14:32:34;1.20;;;1.00;;
3231;SDS011;1628;48.884;9.210;2022-10-22T14:35:01;1.53;;;1.20;;
3231;SDS011;1628;48.884;9.210;2022-10-22T14:37:29;4.33;;;1.57;;
3231;SDS011;1628;48.884;9.210;2022-10-22T14:39:56;2.40;;;1.10;;
3231;SDS011;1628;48.884;9.210;2022-10-22T14:42:26;3.00;;;1.93;;
3231;SDS011;1628;48.884;9.210;2022-10-22T14:44:53;1.30;;;0.90;;
3231;SDS011;1628;48.884;9.210;2022-10-22T14:47:20;1.73;;;1.50;;
3231;SDS011;1628;48.884;9.210;2022-10-22T14:49:46;1.70;;;0.93;;
3231;SDS011;1628;48.884;9.210;2022-10-22T14:52:13;1.50;;;1.07;;
3231;SDS011;1628;48.884;9.210;2022-10-22T14:54:41;1.17;;;0.80;;
3231;SDS011;1628;48.884;9.210;2022-10-22T14:57:08;1.63;;;1.10;;
3231;SDS011;1628;48.884;9.210;2022-10-22T14:59:38;2.93;;;1.23;;
3231;SDS011;1628;48.884;9.210;2022-10-22T15:02:05;1.10;;;1.10;;
3231;SDS011;1628;48.884;9.210;2022-10-22T15:04:34;4.10;;;1.10;;
3231;SDS011;1628;48.884;9.210;2022-10-22T15:07:01;1.50;;;1.30;;
3231;SDS011;1628;48.884;9.210;2022-10-22T15:09:28;1.20;;;0.93;;
3231;SDS011;1628;48.884;9.210;2022-10-22T15:11:56;2.30;;;1.03;;
3231;SDS011;1628;48.884;9.210;2022-10-22T15:14:23;1.93;;;1.73;;
3231;SDS011;1628;48.884;9.210;2022-10-22T15:16:50;1.97;;;1.53;;
3231;SDS011;1628;48.884;9.210;2022-10-22T15:19:16;2.00;;;1.70;;
3231;SDS011;1628;48.884;9.210;2022-10-22T15:21:43;2.83;;;1.67;;
3231;SDS011;1628;48.884;9.210;2022-10-22T15:24:10;4.73;;;1.73;;
3231;SDS011;1628;48.884;9.210;2022-10-22T15:26:37;1.87;;;1.50;;
3231;SDS011;1628;48.884;9.210;2022-10-22T15:29:05;3.83;;;1.30;;
3231;SDS011;1628;48.884;9.210;2022-10-22T15:31:42;1.70;;;1.60;;
3231;SDS011;1628;48.884;9.210;2022-10-22T15:34:11;5.60;;;2.00;;
3231;SDS011;1628;48.884;9.210;2022-10-22T15:36:38;12.57;;;2.10;;
3231;SDS011;1628;48.884;9.210;2022-10-22T15:39:06;7.73;;;2.20;;
3231;SDS011;1628;48.884;9.210;2022-10-22T15:41:34;3.00;;;1.67;;
3231;SDS011;1628;48.884;9.210;2022-10-22T15:44:01;2.13;;;1.77;;
3231;SDS011;1628;48.884;9.210;2022-10-22T15:46:31;5.00;;;2.10;;
3231;SDS011;1628;48.884;9.210;2022-10-22T15:48:58;3.27;;;2.80;;
3231;SDS011;1628;48.884;9.210;2022-10-22T15:51:25;9.80;;;6.13;;
3231;SDS011;1628;48.884;9.210;2022-10-22T15:53:52;6.07;;;4.97;;
3231;SDS011;1628;48.884;9.210;2022-10-22T15:56:20;5.57;;;3.90;;
3231;SDS011;1628;48.884;9.210;2022-10-22T15:58:51;4.40;;;4.00;;
3231;SDS011;1628;48.884;9.210;2022-10-22T16:01:18;5.67;;;3.70;;
3231;SDS011;1628;48.884;9.210;2022-10-22T16:03:48;4.33;;;3.63;;
3231;SDS011;1628;48.884;9.210;2022-10-22T16:06:16;3.57;;;3.27;;
3231;SDS011;1628;48.884;9.210;2022-10-22T16:08:43;3.80;;;3.40;;
3231;SDS011;1628;48.884;9.210;2022-10-22T16:11:11;3.13;;;2.77;;
3231;SDS011;1628;48.884;9.210;2022-10-22T16:13:38;2.97;;;2.77;;
3231;SDS011;1628;48.884;9.210;2022-10-22T16:16:05;3.03;;;2.03;;
3231;SDS011;1628;48.884;9.210;2022-10-22T16:18:32;2.20;;;2.00;;
3231;SDS011;1628;48.884;9.210;2022-10-22T16:21:00;2.77;;;2.50;;
3231;SDS011;1628;48.884;9.210;2022-10-22T16:23:27;2.93;;;2.13;;
3231;SDS011;1628;48.884;9.210;2022-10-22T16:25:53;3.33;;;2.23;;
3231;SDS011;1628;48.884;9.210;2022-10-22T16:28:20;3.20;;;1.60;;
3231;SDS011;1628;48.884;9.210;2022-10-22T16:30:47;4.83;;;1.47;;
3231;SDS011;1628;48.884;9.210;2022-10-22T16:33:14;4.00;;;1.47;;
3231;SDS011;1628;48.884;9.210;2022-10-22T16:35:41;1.60;;;1.50;;
3231;SDS011;1628;48.884;9.210;2022-10-22T16:38:09;4.33;;;2.30;;
3231;SDS011;1628;48.884;9.210;2022-10-22T16:40:36;8.97;;;4.10;;
3231;SDS011;1628;48.884;9.210;2022-10-22T16:43:04;2.77;;;1.67;;
3231;SDS011;1628;48.884;9.210;2022-10-22T16:45:31;2.07;;;1.27;;
3231;SDS011;1628;48.884;9.210;2022-10-22T16:47:57;4.77;;;2.13;;
3231;SDS011;1628;48.884;9.210;2022-10-22T16:50:24;3.67;;;2.77;;
3231;SDS011;1628;48.884;9.210;2022-10-22T16:52:51;3.30;;;2.37;;
3231;SDS011;1628;48.884;9.210;2022-10-22T16:55:19;8.63;;;2.50;;
3231;SDS011;1628;48.884;9.210;2022-10-22T16:57:48;3.10;;;2.20;;
3231;SDS011;1628;48.884;9.210;2022-10-22T17:00:16;3.30;;;2.40;;
3231;SDS011;1628;48.884;9.210;2022-10-22T17:02:43;30.07;;;27.03;;
3231;SDS011;1628;48.884;9.210;2022-10-22T17:05:10;13.93;;;12.53;;
3231;SDS011;1628;48.884;9.210;2022-10-22T17:07:36;17.73;;;14.53;;
3231;SDS011;1628;48.884;9.210;2022-10-22T17:10:03;18.40;;;15.17;;
3231;SDS011;1628;48.884;9.210;2022-10-22T17:12:34;9.73;;;8.00;;
3231;SDS011;1628;48.884;9.210;2022-10-22T17:15:01;12.87;;;11.50;;
3231;SDS011;1628;48.884;9.210;2022-10-22T17:17:29;17.63;;;13.10;;
3231;SDS011;1628;48.884;9.210;2022-10-22T17:19:56;5.90;;;4.33;;
3231;SDS011;1628;48.884;9.210;2022-10-22T17:22:23;5.47;;;3.70;;
3231;SDS011;1628;48.884;9.210;2022-10-22T17:25:03;4.80;;;4.33;;
3231;SDS011;1628;48.884;9.210;2022-10-22T17:27:35;9.47;;;6.07;;
3231;SDS011;1628;48.884;9.210;2022-10-22T17:30:02;10.23;;;4.77;;
3231;SDS011;1628;48.884;9.210;2022-10-22T17:32:29;5.87;;;4.03;;
3231;SDS011;1628;48.884;9.210;2022-10-22T17:34:56;5.33;;;3.90;;
3231;SDS011;1628;48.884;9.210;2022-10-22T17:37:23;5.77;;;4.73;;
3231;SDS011;1628;48.884;9.210;2022-10-22T17:39:50;12.47;;;5.53;;
3231;SDS011;1628;48.884;9.210;2022-10-22T17:42:17;16.00;;;11.30;;
3231;SDS011;1628;48.884;9.210;2022-10-22T17:44:44;15.63;;;8.90;;
3231;SDS011;1628;48.884;9.210;2022-10-22T17:47:11;8.70;;;6.43;;
3231;SDS011;1628;48.884;9.210;2022-10-22T17:49:39;6.37;;;5.00;;
3231;SDS011;1628;48.884;9.210;2022-10-22T17:52:06;5.27;;;3.40;;
3231;SDS011;1628;48.884;9.210;2022-10-22T17:54:34;4.40;;;3.17;;
3231;SDS011;1628;48.884;9.210;2022-10-22T17:57:01;5.57;;;3.33;;
3231;SDS011;1628;48.884;9.210;2022-10-22T17:59:28;8.60;;;3.80;;
3231;SDS011;1628;48.884;9.210;2022-10-22T18:01:56;4.27;;;3.20;;
3231;SDS011;1628;48.884;9.210;2022-10-22T18:04:26;3.60;;;2.90;;
3231;SDS011;1628;48.884;9.210;2022-10-22T18:06:54;4.60;;;3.53;;
3231;SDS011;1628;48.884;9.210;2022-10-22T18:09:21;4.90;;;4.07;;
3231;SDS011;1628;48.884;9.210;2022-10-22T18:11:48;6.70;;;3.50;;
3231;SDS011;1628;48.884;9.210;2022-10-22T18:14:17;4.40;;;3.40;;
3231;SDS011;1628;48.884;9.210;2022-10-22T18:16:44;7.90;;;4.37;;
3231;SDS011;1628;48.884;9.210;2022-10-22T18:19:14;6.50;;;4.47;;
3231;SDS011;1628;48.884;9.210;2022-10-22T18:21:42;7.68;;;3.40;;
3231;SDS011;1628;48.884;9.210;2022-10-22T18:24:09;5.50;;;3.43;;
3231;SDS011;1628;48.884;9.210;2022-10-22T18:26:35;4.53;;;3.63;;
3231;SDS011;1628;48.884;9.210;2022-10-22T18:29:02;5.10;;;4.07;;
3231;SDS011;1628;48.884;9.210;2022-10-22T18:31:29;7.23;;;3.60;;
3231;SDS011;1628;48.884;9.210;2022-10-22T18:33:56;4.53;;;3.50;;
3231;SDS011;1628;48.884;9.210;2022-10-22T18:36:26;3.97;;;3.67;;
3231;SDS011;1628;48.884;9.210;2022-10-22T18:38:53;5.40;;;3.40;;
3231;SDS011;1628;48.884;9.210;2022-10-22T18:41:21;10.10;;;5.10;;
3231;SDS011;1628;48.884;9.210;2022-10-22T18:43:49;6.77;;;3.80;;
3231;SDS011;1628;48.884;9.210;2022-10-22T18:46:16;4.57;;;4.07;;
3231;SDS011;1628;48.884;9.210;2022-10-22T18:48:43;5.17;;;4.00;;
3231;SDS011;1628;48.884;9.210;2022-10-22T18:51:11;8.73;;;4.10;;
3231;SDS011;1628;48.884;9.210;2022-10-22T18:53:40;4.40;;;3.90;;
3231;SDS011;1628;48.884;9.210;2022-10-22T18:56:07;6.30;;;3.70;;
3231;SDS011;1628;48.884;9.210;2022-10-22T18:58:38;4.50;;;3.50;;
3231;SDS011;1628;48.884;9.210;2022-10-22T19:01:06;6.03;;;3.90;;
3231;SDS011;1628;48.884;9.210;2022-10-22T19:03:33;5.30;;;3.40;;
3231;SDS011;1628;48.884;9.210;2022-10-22T19:06:00;12.93;;;3.63;;
3231;SDS011;1628;48.884;9.210;2022-10-22T19:08:26;6.00;;;4.83;;
3231;SDS011;1628;48.884;9.210;2022-10-22T19:10:55;7.07;;;4.00;;
3231;SDS011;1628;48.884;9.210;2022-10-22T19:13:21;10.00;;;4.13;;
3231;SDS011;1628;48.884;9.210;2022-10-22T19:15:49;7.27;;;3.80;;
3231;SDS011;1628;48.884;9.210;2022-10-22T19:18:16;7.40;;;3.40;;
3231;SDS011;1628;48.884;9.210;2022-10-22T19:20:43;5.30;;;3.13;;
3231;SDS011;1628;48.884;9.210;2022-10-22T19:23:12;6.73;;;3.27;;
3231;SDS011;1628;48.884;9.210;2022-10-22T19:25:39;9.00;;;3.97;;
3231;SDS011;1628;48.884;9.210;2022-10-22T19:28:07;4.03;;;3.47;;